Time;durP1;ratioP1;P1;durP2;ratioP2;P2;SDS_P1;SDS_P2;PMS_P1;PMS_P2;Temp;Humidity;BMP_temperature;BMP_pressure;BME280_temperature;BME280_humidity;BME280_pressure;Samples;Min_cycle;Max_cycle;Signal;HPM_P1;HPM_P2
2021/10/25 00:03:23;;;;;;;6.05;2.65;;;7.60;99.90;;;;;;12300401;28;20055;-85
2021/10/25 00:09:25;;;;;;;7.95;2.80;;;7.60;99.90;;;;;;12302786;28;20049;-86
2021/10/25 00:15:27;;;;;;;5.30;2.85;;;7.80;99.90;;;;;;12314289;28;20053;-86
2021/10/25 00:21:29;;;;;;;7.60;3.88;;;7.80;99.90;;;;;;12313630;28;20057;-84
2021/10/25 00:27:31;;;;;;;6.20;2.65;;;7.80;99.90;;;;;;12310825;28;20127;-86
2021/10/25 00:33:34;;;;;;;4.88;2.42;;;7.80;99.90;;;;;;12302660;28;20047;-86
2021/10/25 00:39:36;;;;;;;7.63;2.95;;;7.80;99.90;;;;;;12305802;28;20070;-85
2021/10/25 00:45:38;;;;;;;6.43;2.80;;;7.70;99.90;;;;;;12308550;28;20132;-86
2021/10/25 00:51:40;;;;;;;5.90;2.88;;;7.70;99.90;;;;;;12307962;28;20047;-86
2021/10/25 00:57:42;;;;;;;4.90;2.50;;;7.70;99.90;;;;;;12310290;28;20470;-84
2021/10/25 01:03:45;;;;;;;7.72;2.80;;;7.80;99.90;;;;;;12310934;28;20039;-86
2021/10/25 01:09:47;;;;;;;6.50;2.55;;;7.80;99.90;;;;;;12309021;28;20410;-86
2021/10/25 01:15:49;;;;;;;5.32;2.80;;;7.70;99.90;;;;;;12306990;28;20055;-84
2021/10/25 01:21:50;;;;;;;7.95;3.20;;;7.60;99.90;;;;;;12310570;28;20102;-86
2021/10/25 01:27:53;;;;;;;4.88;2.90;;;7.70;99.90;;;;;;12311510;28;20877;-85
2021/10/25 01:33:55;;;;;;;7.03;2.53;;;7.70;99.90;;;;;;12313530;28;20462;-85
2021/10/25 01:39:56;;;;;;;6.00;2.70;;;7.80;99.90;;;;;;12306262;28;20557;-85
2021/10/25 01:45:58;;;;;;;5.85;3.00;;;7.70;99.90;;;;;;12332660;28;20093;-85
2021/10/25 01:52:00;;;;;;;7.95;2.92;;;7.70;99.90;;;;;;12316345;28;20042;-86
2021/10/25 01:58:04;;;;;;;6.18;2.80;;;7.70;99.90;;;;;;12306423;28;20143;-85
2021/10/25 02:04:06;;;;;;;5.57;2.90;;;7.60;99.90;;;;;;12308742;28;20134;-85
2021/10/25 02:10:09;;;;;;;6.88;2.80;;;7.70;99.90;;;;;;12304754;28;20120;-86
2021/10/25 02:16:12;;;;;;;7.00;2.90;;;7.60;99.90;;;;;;12292905;28;20058;-85
2021/10/25 02:22:14;;;;;;;4.85;2.85;;;7.60;99.90;;;;;;12295019;28;20050;-85
2021/10/25 02:28:15;;;;;;;8.77;3.42;;;7.60;99.90;;;;;;12296777;28;20451;-85
2021/10/25 02:34:18;;;;;;;6.65;2.95;;;7.60;99.90;;;;;;12281817;28;20069;-86
2021/10/25 02:40:20;;;;;;;7.70;2.90;;;7.60;99.90;;;;;;12298671;28;20054;-85
2021/10/25 02:46:22;;;;;;;5.88;2.83;;;7.50;99.90;;;;;;12288542;28;20795;-86
2021/10/25 02:52:24;;;;;;;7.13;3.00;;;7.40;99.90;;;;;;12298957;28;20055;-86
2021/10/25 02:58:26;;;;;;;5.85;2.92;;;7.40;99.90;;;;;;12295286;28;20626;-85
2021/10/25 03:04:28;;;;;;;5.07;2.90;;;7.30;99.90;;;;;;12293325;28;20103;-84
2021/10/25 03:10:35;;;;;;;4.93;2.90;;;7.30;99.90;;;;;;12293537;28;20109;-85
2021/10/25 03:16:37;;;;;;;7.03;2.92;;;7.30;99.90;;;;;;12292625;28;20864;-86
2021/10/25 03:22:42;;;;;;;8.35;3.17;;;7.40;99.90;;;;;;12314574;28;20062;-85
2021/10/25 03:28:44;;;;;;;6.13;2.75;;;7.30;99.90;;;;;;12303864;28;20063;-85
2021/10/25 03:34:46;;;;;;;7.45;2.92;;;7.30;99.90;;;;;;12294094;28;20061;-85
2021/10/25 03:40:51;;;;;;;6.43;2.97;;;7.20;99.90;;;;;;12321794;28;20116;-86
2021/10/25 04:30:34;;;;;;;7.30;3.20;;;7.30;99.90;;;;;;12303637;28;20118;-86
2021/10/25 04:36:36;;;;;;;6.45;3.00;;;7.20;99.90;;;;;;12299236;28;20061;-84
2021/10/25 04:42:37;;;;;;;8.45;3.15;;;7.10;99.90;;;;;;12300978;28;20161;-86
2021/10/25 04:48:42;;;;;;;6.07;2.80;;;7.10;99.90;;;;;;12301057;28;20047;-86
2021/10/25 04:54:44;;;;;;;;;;;7.00;99.90;;;;;;12317769;28;20160;-83
2021/10/25 05:00:48;;;;;;;6.75;3.33;;;6.90;99.90;;;;;;12302739;28;19968;-85
2021/10/25 05:06:50;;;;;;;5.93;3.25;;;6.90;99.90;;;;;;12300196;28;20078;-86
2021/10/25 05:12:52;;;;;;;7.72;3.35;;;6.90;99.90;;;;;;12298327;28;20059;-86
2021/10/25 05:18:55;;;;;;;6.30;3.13;;;6.90;99.90;;;;;;12297006;28;20042;-84
2021/10/25 05:24:57;;;;;;;7.28;3.53;;;6.90;99.90;;;;;;12292275;28;20039;-84
2021/10/25 05:30:59;;;;;;;6.03;3.28;;;7.00;99.90;;;;;;12297122;28;20513;-86
2021/10/25 05:37:01;;;;;;;4.53;3.33;;;7.00;99.90;;;;;;12294474;28;20055;-86
2021/10/25 05:43:03;;;;;;;6.38;3.45;;;6.90;99.90;;;;;;12299942;28;20043;-85
2021/10/25 05:49:06;;;;;;;8.20;3.92;;;7.00;99.90;;;;;;12294319;28;20058;-84
2021/10/25 05:55:08;;;;;;;5.57;3.17;;;7.00;99.90;;;;;;12290769;28;20050;-84
2021/10/25 06:01:17;;;;;;;7.22;3.58;;;7.10;99.90;;;;;;12298547;28;20554;-84
2021/10/25 06:07:18;;;;;;;6.35;3.33;;;7.20;99.90;;;;;;12295946;28;20141;-84
2021/10/25 06:13:37;;;;;;;8.88;3.30;;;7.10;99.90;;;;;;12293800;28;20749;-86
2021/10/25 06:19:40;;;;;;;5.25;3.40;;;7.10;99.90;;;;;;12287149;28;20908;-83
2021/10/25 06:25:46;;;;;;;5.53;3.60;;;7.10;99.90;;;;;;12284176;28;20077;-85
2021/10/25 06:31:48;;;;;;;5.82;3.33;;;7.20;99.90;;;;;;12287422;28;20100;-85
2021/10/25 06:37:57;;;;;;;6.78;3.50;;;7.20;99.90;;;;;;12293132;28;20050;-85
2021/10/25 06:44:01;;;;;;;7.25;3.40;;;7.20;99.90;;;;;;12272943;28;20062;-85
2021/10/25 06:50:03;;;;;;;7.30;3.20;;;7.20;99.90;;;;;;12293013;28;20046;-85
2021/10/25 06:56:05;;;;;;;7.10;3.55;;;7.30;99.90;;;;;;12289627;28;20054;-85
2021/10/25 07:02:07;;;;;;;9.27;3.67;;;7.30;99.90;;;;;;12289308;28;20097;-86
2021/10/25 07:08:11;;;;;;;8.52;3.28;;;7.40;99.90;;;;;;12290376;28;20519;-86
2021/10/25 07:14:15;;;;;;;11.88;3.42;;;7.50;99.90;;;;;;12288206;28;20054;-84
2021/10/25 08:11:03;;;;;;;8.50;3.42;;;8.30;99.90;;;;;;12286054;28;20039;-84
2021/10/25 08:17:07;;;;;;;6.13;2.72;;;8.60;99.90;;;;;;12300236;28;20058;-84
2021/10/25 08:23:09;;;;;;;7.38;2.58;;;9.00;99.90;;;;;;12300070;28;20043;-84
2021/10/25 08:29:14;;;;;;;7.22;3.20;;;9.20;99.90;;;;;;12303935;28;20061;-85
2021/10/25 08:35:39;;;;;;;6.50;3.05;;;9.50;99.90;;;;;;12301210;28;20574;-85
2021/10/25 08:41:41;;;;;;;7.22;2.90;;;9.60;99.90;;;;;;12298942;28;20055;-84
2021/10/25 08:47:48;;;;;;;8.50;2.90;;;9.80;99.90;;;;;;12302943;28;20074;-86
2021/10/25 08:53:51;;;;;;;8.27;2.78;;;10.00;99.90;;;;;;12305047;28;20078;-85
2021/10/25 09:00:21;;;;;;;5.22;2.65;;;10.10;99.90;;;;;;12303164;28;20428;-86
2021/10/25 09:06:23;;;;;;;5.63;2.60;;;10.30;99.90;;;;;;12296180;28;20427;-85
2021/10/25 09:12:34;;;;;;;5.45;2.72;;;10.40;99.90;;;;;;12301951;28;20105;-84
2021/10/25 09:18:38;;;;;;;7.28;3.08;;;10.50;99.90;;;;;;12336947;28;20109;-85
2021/10/25 09:24:53;;;;;;;7.53;2.95;;;10.50;99.90;;;;;;12304018;28;20086;-84
2021/10/25 09:31:05;;;;;;;7.22;3.20;;;10.70;99.90;;;;;;12308127;28;20458;-86
2021/10/25 09:37:11;;;;;;;5.70;2.97;;;10.60;99.90;;;;;;12293434;28;20728;-84
2021/10/25 09:49:59;;;;;;;6.45;3.60;;;10.80;99.90;;;;;;12301686;28;20046;-86
2021/10/25 09:56:02;;;;;;;;;;;11.00;99.90;;;;;;12304911;28;20051;-87
2021/10/25 10:02:04;;;;;;;8.90;3.05;;;11.30;99.90;;;;;;12301949;28;20024;-84
2021/10/25 10:08:11;;;;;;;6.50;2.83;;;11.60;99.90;;;;;;12303949;28;20174;-85
2021/10/25 10:14:13;;;;;;;7.70;3.00;;;12.00;99.90;;;;;;12299164;28;20141;-84
2021/10/25 10:20:28;;;;;;;5.75;2.83;;;12.00;99.90;;;;;;12296511;28;20451;-84
2021/10/25 10:26:32;;;;;;;6.82;2.75;;;11.80;99.90;;;;;;12301965;28;20277;-86
2021/10/25 10:32:34;;;;;;;7.13;2.70;;;12.00;99.90;;;;;;12290569;28;23183;-86
2021/10/25 10:39:06;;;;;;;5.47;3.13;;;12.20;99.90;;;;;;12329057;28;20055;-84
2021/10/25 10:45:11;;;;;;;5.93;3.00;;;12.20;99.90;;;;;;12287500;28;20055;-84
2021/10/25 10:51:15;;;;;;;;;;;12.20;99.90;;;;;;12298248;28;20046;-84
2021/10/25 11:04:04;;;;;;;6.75;3.00;;;11.50;99.90;;;;;;12262761;28;20082;-86
2021/10/25 11:10:09;;;;;;;8.75;3.05;;;11.70;99.90;;;;;;12295386;28;20077;-85
2021/10/25 11:16:25;;;;;;;4.57;3.25;;;11.60;99.90;;;;;;12299294;28;20061;-85
2021/10/25 11:22:32;;;;;;;5.53;2.45;;;11.90;99.90;;;;;;12315813;28;20047;-85
2021/10/25 11:28:34;;;;;;;5.35;3.03;;;12.50;99.90;;;;;;12328073;28;20539;-85
2021/10/25 11:34:42;;;;;;;8.07;2.70;;;12.70;99.90;;;;;;12329368;28;20050;-85
2021/10/25 11:40:44;;;;;;;7.55;3.25;;;13.10;99.90;;;;;;12332481;28;20668;-85
2021/10/25 11:46:46;;;;;;;8.55;2.88;;;13.40;99.90;;;;;;12332594;28;20042;-84
2021/10/25 11:52:49;;;;;;;5.07;2.83;;;13.60;99.90;;;;;;12302167;28;20989;-87
2021/10/25 11:58:55;;;;;;;6.20;2.43;;;13.90;99.90;;;;;;12285062;28;20061;-87
2021/10/25 12:04:57;;;;;;;4.60;2.30;;;14.20;99.90;;;;;;12306891;28;20050;-87
2021/10/25 12:10:59;;;;;;;11.82;2.78;;;14.10;99.90;;;;;;12307373;28;20066;-87
2021/10/25 12:17:01;;;;;;;5.78;2.35;;;14.30;99.90;;;;;;12312185;28;20320;-86
2021/10/25 12:23:11;;;;;;;5.00;2.33;;;14.40;99.90;;;;;;12311562;28;20058;-87
2021/10/25 12:29:18;;;;;;;8.93;3.20;;;14.40;99.90;;;;;;12340708;28;20154;-85
2021/10/25 12:35:34;;;;;;;4.60;2.65;;;14.20;99.90;;;;;;12320426;28;20205;-85
2021/10/25 12:42:07;;;;;;;5.28;2.92;;;14.30;99.90;;;;;;12309003;28;20054;-87
2021/10/25 12:48:12;;;;;;;5.15;2.60;;;14.20;99.90;;;;;;12304786;28;20055;-85
2021/10/25 12:54:14;;;;;;;6.68;2.53;;;14.10;99.90;;;;;;12310493;28;20056;-85
2021/10/25 13:00:17;;;;;;;6.03;2.45;;;13.80;99.90;;;;;;12307302;28;20565;-85
2021/10/25 13:06:26;;;;;;;6.90;2.33;;;13.90;99.90;;;;;;12304200;28;20078;-85
2021/10/25 13:12:28;;;;;;;9.02;2.60;;;13.80;99.90;;;;;;12305152;28;20047;-86
2021/10/25 13:18:30;;;;;;;4.28;2.00;;;13.70;99.90;;;;;;12305899;28;20071;-86
2021/10/25 13:24:32;;;;;;;4.85;2.20;;;13.70;99.90;;;;;;12313847;28;20051;-85
2021/10/25 13:30:35;;;;;;;4.38;1.98;;;13.60;99.90;;;;;;12316482;28;20078;-86
2021/10/25 13:36:37;;;;;;;4.53;2.00;;;13.70;99.90;;;;;;12338731;28;20050;-85
2021/10/25 13:42:45;;;;;;;4.68;2.08;;;13.60;99.90;;;;;;12289621;28;20153;-86
2021/10/25 13:48:47;;;;;;;5.18;2.47;;;13.60;99.90;;;;;;12303878;28;20051;-84
2021/10/25 13:54:49;;;;;;;4.28;2.17;;;13.50;99.90;;;;;;12334237;28;20101;-86
2021/10/25 14:00:51;;;;;;;6.32;2.40;;;13.60;99.90;;;;;;12301285;28;20050;-85
2021/10/25 14:06:54;;;;;;;8.52;2.60;;;13.60;99.90;;;;;;12299802;28;20101;-86
2021/10/25 14:13:03;;;;;;;8.48;2.53;;;13.50;99.90;;;;;;12299699;28;20082;-85
2021/10/25 14:19:08;;;;;;;4.72;2.22;;;13.30;99.90;;;;;;12295747;28;20046;-86
2021/10/25 14:25:11;;;;;;;9.05;2.88;;;13.20;99.90;;;;;;12296171;28;20046;-85
2021/10/25 14:31:15;;;;;;;9.13;2.75;;;13.10;99.90;;;;;;12294564;28;20820;-86
2021/10/25 14:37:17;;;;;;;6.25;2.95;;;13.10;99.90;;;;;;12333597;28;20059;-86
2021/10/25 14:43:28;;;;;;;6.22;2.40;;;13.30;99.90;;;;;;12299532;28;20089;-85
2021/10/25 14:55:45;;;;;;;4.93;2.03;;;13.20;99.90;;;;;;12301043;28;20137;-85
2021/10/25 15:01:47;;;;;;;5.70;2.13;;;13.10;99.90;;;;;;12296195;28;20046;-85
2021/10/25 15:08:08;;;;;;;7.13;2.72;;;13.10;99.90;;;;;;12296484;28;20054;-86
2021/10/25 15:14:10;;;;;;;8.00;2.25;;;13.00;99.90;;;;;;12295986;28;20138;-85
2021/10/25 15:20:12;;;;;;;6.25;2.10;;;12.90;99.90;;;;;;12294171;28;20062;-85
2021/10/25 15:26:14;;;;;;;6.90;2.28;;;12.80;99.90;;;;;;12294976;28;20418;-85
2021/10/25 15:32:19;;;;;;;8.00;2.00;;;12.70;99.90;;;;;;12293943;28;20071;-85
2021/10/25 15:38:22;;;;;;;4.47;2.20;;;12.60;99.90;;;;;;12292718;28;20056;-86
2021/10/25 15:44:24;;;;;;;7.37;2.50;;;12.60;99.90;;;;;;12299804;28;20105;-85
2021/10/25 15:50:28;;;;;;;6.47;1.88;;;12.50;99.90;;;;;;12295362;28;20049;-84
2021/10/25 15:56:32;;;;;;;4.13;1.90;;;12.50;99.90;;;;;;12319266;28;20050;-86
2021/10/25 16:02:34;;;;;;;4.20;2.00;;;12.30;99.90;;;;;;12306931;28;20607;-85
2021/10/25 16:08:36;;;;;;;9.85;2.30;;;12.10;99.90;;;;;;12244483;28;20081;-86
2021/10/25 16:14:38;;;;;;;7.20;2.10;;;12.00;99.90;;;;;;12305486;28;20121;-84
2021/10/25 16:20:40;;;;;;;5.18;2.95;;;11.90;99.90;;;;;;12306145;28;20149;-86
2021/10/25 16:26:43;;;;;;;6.28;2.38;;;11.90;99.90;;;;;;12302777;28;20519;-85
2021/10/25 16:32:46;;;;;;;5.88;2.10;;;12.00;99.90;;;;;;12296768;28;20396;-85
2021/10/25 16:38:48;;;;;;;7.88;2.50;;;12.00;99.90;;;;;;12302066;28;20055;-85
2021/10/25 16:44:50;;;;;;;4.57;2.00;;;12.00;99.90;;;;;;12301683;28;20722;-86
2021/10/25 17:04:10;;;;;;;8.48;3.55;;;11.80;99.90;;;;;;12289529;28;20960;-87
2021/10/25 17:10:12;;;;;;;6.97;2.40;;;11.80;99.90;;;;;;12299703;28;20058;-86
2021/10/25 17:16:14;;;;;;;5.05;2.17;;;11.80;99.90;;;;;;12294072;28;20054;-85
2021/10/25 17:22:19;;;;;;;7.65;2.28;;;11.80;99.90;;;;;;12292117;28;20050;-86
2021/10/25 17:28:29;;;;;;;5.07;2.38;;;11.80;99.90;;;;;;12301020;28;20054;-84
2021/10/25 17:34:31;;;;;;;4.65;2.30;;;11.80;99.90;;;;;;12301239;28;20581;-85
2021/10/25 17:40:35;;;;;;;5.40;2.88;;;11.90;99.90;;;;;;12311502;28;20133;-85
2021/10/25 17:46:39;;;;;;;4.80;2.22;;;11.90;99.90;;;;;;12304568;28;20436;-85
2021/10/25 17:52:42;;;;;;;5.38;2.45;;;12.00;99.90;;;;;;12302643;28;20673;-85
2021/10/25 17:58:44;;;;;;;7.20;2.40;;;12.00;99.90;;;;;;12299046;28;20096;-85
2021/10/25 18:04:47;;;;;;;5.13;2.55;;;12.00;99.90;;;;;;12300067;28;20089;-85
2021/10/25 18:10:50;;;;;;;4.47;2.33;;;12.00;99.90;;;;;;12331904;28;20153;-87
2021/10/25 18:16:54;;;;;;;4.32;1.90;;;12.20;99.90;;;;;;12301234;28;20169;-86
2021/10/25 18:22:56;;;;;;;4.90;2.40;;;12.20;99.90;;;;;;12301423;28;20061;-85
2021/10/25 18:28:58;;;;;;;4.60;2.45;;;12.10;99.90;;;;;;12298755;28;20125;-85
2021/10/25 18:35:00;;;;;;;6.50;2.40;;;12.00;99.90;;;;;;12296365;28;20051;-85
2021/10/25 18:41:02;;;;;;;4.95;2.75;;;12.00;99.90;;;;;;12298643;28;20826;-87
2021/10/25 18:47:04;;;;;;;7.25;3.13;;;12.00;99.90;;;;;;12296823;28;20061;-87
2021/10/25 18:53:06;;;;;;;8.30;3.20;;;12.00;99.90;;;;;;12296596;28;20224;-85
2021/10/25 18:59:09;;;;;;;7.43;3.10;;;12.30;99.90;;;;;;12296792;28;20070;-84
2021/10/25 19:05:14;;;;;;;7.25;3.50;;;12.30;99.90;;;;;;12297866;28;20404;-85
2021/10/25 19:11:16;;;;;;;8.10;3.65;;;12.10;99.90;;;;;;12293432;28;20046;-87
2021/10/25 19:17:18;;;;;;;5.95;3.60;;;12.10;99.90;;;;;;12295925;28;20158;-87
2021/10/25 19:23:21;;;;;;;8.52;4.40;;;11.90;99.90;;;;;;12297083;28;20058;-86
2021/10/25 19:29:22;;;;;;;8.98;4.55;;;11.70;99.90;;;;;;12295773;28;20046;-87
2021/10/25 19:35:24;;;;;;;8.43;4.75;;;11.60;99.90;;;;;;12318664;28;20701;-86
2021/10/25 19:41:27;;;;;;;11.27;5.32;;;11.40;99.90;;;;;;12305217;28;20080;-86
2021/10/25 19:47:29;;;;;;;12.70;5.78;;;11.20;99.90;;;;;;12307099;28;20081;-87
2021/10/25 19:53:31;;;;;;;11.45;5.93;;;11.10;99.90;;;;;;12323817;28;20575;-86
2021/10/25 19:59:35;;;;;;;11.52;6.57;;;10.90;99.90;;;;;;12301117;28;20057;-85
2021/10/25 20:05:37;;;;;;;10.97;7.20;;;10.90;99.90;;;;;;12298384;28;20109;-85
2021/10/25 20:11:39;;;;;;;12.35;8.45;;;10.80;99.90;;;;;;12308992;28;20047;-86
2021/10/25 20:17:44;;;;;;;16.85;8.82;;;10.80;99.90;;;;;;12296840;28;20069;-85
2021/10/25 20:23:46;;;;;;;16.83;9.70;;;10.80;99.90;;;;;;12294849;28;20137;-87
2021/10/25 20:29:52;;;;;;;16.02;9.65;;;10.80;99.90;;;;;;12303082;28;20554;-86
2021/10/25 20:36:02;;;;;;;18.55;10.60;;;10.80;99.90;;;;;;12307426;28;20055;-85
2021/10/25 20:42:05;;;;;;;18.58;11.48;;;10.80;99.90;;;;;;12321012;28;20313;-86
2021/10/25 20:48:07;;;;;;;17.73;11.60;;;10.80;99.90;;;;;;12314841;28;20059;-85
2021/10/25 20:54:09;;;;;;;20.35;13.73;;;10.80;99.90;;;;;;12296955;28;20042;-85
2021/10/25 21:00:11;;;;;;;20.73;13.25;;;10.80;99.90;;;;;;12305196;28;20105;-86
2021/10/25 21:06:23;;;;;;;22.33;14.10;;;10.80;99.90;;;;;;12305977;28;20049;-86
2021/10/25 21:12:25;;;;;;;26.33;15.40;;;10.80;99.90;;;;;;12310167;28;20090;-85
2021/10/25 21:18:27;;;;;;;27.85;16.95;;;10.70;99.90;;;;;;12301201;28;20051;-86
2021/10/25 21:24:29;;;;;;;22.90;16.67;;;10.70;99.90;;;;;;12305516;28;20050;-86
2021/10/25 21:30:32;;;;;;;30.15;19.70;;;10.70;99.90;;;;;;12300203;28;20055;-85
2021/10/25 21:36:34;;;;;;;27.33;18.80;;;10.80;99.90;;;;;;12313329;28;20602;-86
2021/10/25 21:42:36;;;;;;;26.17;18.90;;;10.70;99.90;;;;;;12295970;28;20055;-86
2021/10/25 21:48:38;;;;;;;28.70;18.00;;;10.70;99.90;;;;;;12294672;28;20043;-86
2021/10/25 21:54:40;;;;;;;23.90;16.83;;;10.80;99.90;;;;;;12306314;28;20046;-85
2021/10/25 22:00:42;;;;;;;27.52;18.10;;;10.90;99.90;;;;;;12319670;28;20043;-86
2021/10/25 22:06:44;;;;;;;30.85;19.20;;;10.90;99.90;;;;;;12297595;28;20042;-85
2021/10/25 22:12:46;;;;;;;25.92;18.33;;;10.90;99.90;;;;;;12298981;28;20554;-86
2021/10/25 22:18:48;;;;;;;28.35;20.63;;;10.90;99.90;;;;;;12289929;28;20053;-87
2021/10/25 22:24:51;;;;;;;30.35;20.42;;;10.90;99.90;;;;;;12300737;28;20046;-86
2021/10/25 22:30:53;;;;;;;29.42;20.40;;;10.90;99.90;;;;;;12329044;28;20043;-86
2021/10/25 22:36:55;;;;;;;28.30;20.65;;;10.90;99.90;;;;;;12299858;28;20408;-86
2021/10/25 22:42:57;;;;;;;29.55;20.15;;;10.90;99.90;;;;;;12294069;28;20062;-86
2021/10/25 22:48:59;;;;;;;30.80;22.08;;;10.90;99.90;;;;;;12299350;28;20975;-86
2021/10/25 22:55:01;;;;;;;30.45;21.00;;;10.90;99.90;;;;;;12296897;28;20475;-86
2021/10/25 23:01:04;;;;;;;32.13;21.52;;;11.00;99.90;;;;;;12302579;28;20057;-85
2021/10/25 23:07:06;;;;;;;30.60;21.67;;;10.90;99.90;;;;;;12305447;28;20054;-86
2021/10/25 23:13:08;;;;;;;31.55;22.00;;;10.90;99.90;;;;;;12308341;28;20069;-85
2021/10/25 23:19:10;;;;;;;34.50;23.67;;;10.90;99.90;;;;;;12300097;28;20622;-86
2021/10/25 23:25:13;;;;;;;35.50;23.95;;;11.00;99.90;;;;;;12337945;28;20357;-85
2021/10/25 23:31:16;;;;;;;33.00;24.15;;;10.90;99.90;;;;;;12301226;28;20577;-88
2021/10/25 23:37:21;;;;;;;34.90;24.65;;;11.00;99.90;;;;;;12297945;28;20510;-87
2021/10/25 23:43:23;;;;;;;;;;;11.00;99.90;;;;;;12291237;28;20154;-87
2021/10/25 23:49:25;;;;;;;35.40;24.48;;;11.00;99.90;;;;;;12296550;28;19925;-85
2021/10/25 23:55:26;;;;;;;37.15;25.40;;;10.90;99.90;;;;;;12297913;28;20050;-86
